Time;durP1;ratioP1;P1;durP2;ratioP2;P2;SDS_P1;SDS_P2;PMS_P1;PMS_P2;Temp;Humidity;BMP_temperature;BMP_pressure;BME280_temperature;BME280_humidity;BME280_pressure;Samples;Min_cycle;Max_cycle;Signal;HPM_P1;HPM_P2
2022/03/09 00:00:04;;;;;;;8.67;5.33;;;1.40;99.90;;;;;;5027323;28;20222;-66
2022/03/09 00:02:31;;;;;;;14.73;6.13;;;1.40;99.90;;;;;;5027157;28;20197;-66
2022/03/09 00:04:58;;;;;;;13.70;5.90;;;1.70;99.90;;;;;;5025817;28;20657;-66
2022/03/09 00:07:26;;;;;;;12.27;6.30;;;1.70;99.90;;;;;;5023488;28;20608;-66
2022/03/09 00:09:53;;;;;;;11.23;5.87;;;1.70;99.90;;;;;;5026375;28;20670;-66
2022/03/09 00:12:20;;;;;;;11.23;5.73;;;1.70;99.90;;;;;;5025779;28;20678;-66
2022/03/09 00:14:46;;;;;;;10.90;6.13;;;1.60;99.90;;;;;;5023414;28;20204;-68
2022/03/09 00:17:13;;;;;;;11.50;5.87;;;1.50;99.90;;;;;;5027325;28;20192;-66
2022/03/09 00:19:40;;;;;;;12.23;5.50;;;1.50;99.90;;;;;;5024375;28;20200;-66
2022/03/09 00:22:07;;;;;;;9.13;5.13;;;1.60;99.90;;;;;;5015132;28;20206;-66
2022/03/09 00:24:34;;;;;;;10.53;6.13;;;1.50;99.90;;;;;;5023504;28;20620;-66
2022/03/09 00:27:01;;;;;;;11.80;6.03;;;1.50;99.90;;;;;;5022070;28;20327;-66
2022/03/09 00:29:30;;;;;;;13.30;6.53;;;1.50;99.90;;;;;;5016776;28;20683;-66
2022/03/09 00:31:57;;;;;;;9.57;5.20;;;1.50;99.90;;;;;;5028224;28;20576;-66
2022/03/09 00:34:24;;;;;;;8.93;5.50;;;1.30;99.90;;;;;;5026637;28;20196;-66
2022/03/09 00:36:50;;;;;;;13.20;5.87;;;1.20;99.90;;;;;;5026825;28;20216;-67
2022/03/09 00:39:17;;;;;;;12.07;5.70;;;1.20;99.90;;;;;;5030121;28;20334;-66
2022/03/09 00:41:44;;;;;;;11.43;5.13;;;1.30;99.90;;;;;;5031919;28;20207;-67
2022/03/09 00:44:10;;;;;;;8.90;4.87;;;1.30;99.90;;;;;;5020017;28;20227;-66
2022/03/09 00:46:37;;;;;;;12.20;5.93;;;1.20;99.90;;;;;;5028320;28;20212;-66
2022/03/09 00:49:04;;;;;;;9.13;5.30;;;1.20;99.90;;;;;;5025782;28;20227;-66
2022/03/09 00:51:31;;;;;;;10.03;5.60;;;1.10;99.90;;;;;;5026375;28;20658;-66
2022/03/09 00:53:57;;;;;;;10.23;5.03;;;0.90;99.90;;;;;;5020906;28;20215;-66
2022/03/09 00:56:24;;;;;;;12.07;5.60;;;1.00;99.90;;;;;;5030957;28;20311;-66
2022/03/09 00:58:51;;;;;;;12.20;5.80;;;1.20;99.90;;;;;;5028019;28;20207;-66
2022/03/09 01:01:18;;;;;;;12.47;5.50;;;1.30;99.90;;;;;;5024809;28;20207;-66
2022/03/09 01:03:45;;;;;;;10.37;5.20;;;1.30;99.90;;;;;;5021955;28;20230;-68
2022/03/09 01:06:12;;;;;;;10.93;5.63;;;1.10;99.90;;;;;;5030823;28;20207;-68
2022/03/09 01:08:40;;;;;;;10.60;6.03;;;0.90;99.90;;;;;;5030752;28;20198;-66
2022/03/09 01:11:07;;;;;;;12.33;4.83;;;0.90;99.90;;;;;;5028794;28;20213;-66
2022/03/09 01:13:34;;;;;;;9.63;5.27;;;0.70;99.90;;;;;;5029857;28;20234;-66
2022/03/09 01:16:00;;;;;;;11.73;5.37;;;0.60;99.90;;;;;;5027928;28;20255;-66
2022/03/09 01:18:28;;;;;;;10.63;5.57;;;0.60;99.90;;;;;;5029507;28;20249;-66
2022/03/09 01:20:54;;;;;;;10.27;5.13;;;0.60;99.90;;;;;;5029953;28;20192;-66
2022/03/09 01:23:21;;;;;;;10.37;5.70;;;0.80;99.90;;;;;;5026061;28;20219;-66
2022/03/09 01:25:48;;;;;;;10.77;5.20;;;0.90;99.90;;;;;;5029264;28;20697;-66
2022/03/09 01:28:15;;;;;;;10.97;5.57;;;0.70;99.90;;;;;;5030534;28;20195;-66
2022/03/09 01:30:41;;;;;;;13.80;5.30;;;0.60;99.90;;;;;;5027223;28;20657;-66
2022/03/09 01:33:09;;;;;;;8.87;4.77;;;0.50;99.90;;;;;;5024834;28;20689;-66
2022/03/09 01:35:36;;;;;;;9.17;4.33;;;0.50;99.90;;;;;;5028584;28;20223;-66
2022/03/09 01:38:02;;;;;;;9.53;4.60;;;0.40;99.90;;;;;;5030349;28;20210;-67
2022/03/09 01:40:29;;;;;;;7.63;4.50;;;0.40;99.90;;;;;;5028850;28;20286;-68
2022/03/09 01:42:56;;;;;;;9.13;4.87;;;0.30;99.90;;;;;;5029135;28;20198;-69
2022/03/09 01:45:25;;;;;;;10.90;5.30;;;0.30;99.90;;;;;;5029310;28;20773;-69
2022/03/09 01:47:52;;;;;;;9.50;4.83;;;0.20;99.90;;;;;;5030063;28;20206;-69
2022/03/09 01:50:18;;;;;;;11.13;5.77;;;0.20;99.90;;;;;;5027466;28;20196;-69
2022/03/09 01:52:45;;;;;;;10.13;4.37;;;0.30;99.90;;;;;;5029143;28;20203;-70
2022/03/09 01:55:12;;;;;;;8.20;4.70;;;0.40;99.90;;;;;;5029669;28;20215;-67
2022/03/09 01:57:41;;;;;;;11.67;4.57;;;0.40;99.90;;;;;;5028967;28;20685;-67
2022/03/09 02:00:08;;;;;;;11.03;4.80;;;0.20;99.90;;;;;;5027155;28;20200;-67
2022/03/09 02:02:35;;;;;;;10.97;4.97;;;0.00;99.90;;;;;;5025103;28;20318;-67
2022/03/09 02:05:03;;;;;;;10.30;5.17;;;0.00;99.90;;;;;;5025508;28;20219;-67
2022/03/09 02:10:20;;;;;;;10.37;5.00;;;-0.10;99.90;;;;;;5026257;28;20199;-67
2022/03/09 02:12:47;;;;;;;8.43;4.53;;;-0.10;99.90;;;;;;5026020;28;20196;-67
2022/03/09 02:15:14;;;;;;;8.73;4.93;;;-0.20;99.90;;;;;;5026363;28;20234;-67
2022/03/09 02:17:40;;;;;;;8.80;4.93;;;-0.20;99.90;;;;;;5027617;28;20199;-68
2022/03/09 02:20:08;;;;;;;10.23;5.00;;;-0.20;99.90;;;;;;5025790;28;20226;-72
2022/03/09 02:22:41;;;;;;;10.40;4.70;;;-0.20;99.90;;;;;;5028597;28;20200;-69
2022/03/09 02:25:10;;;;;;;10.87;4.87;;;-0.30;99.90;;;;;;5029574;28;20589;-68
2022/03/09 02:27:38;;;;;;;9.27;4.90;;;-0.30;99.90;;;;;;5029874;28;20604;-68
2022/03/09 02:30:07;;;;;;;11.80;5.10;;;-0.40;99.90;;;;;;5024214;28;20199;-68
2022/03/09 02:32:40;;;;;;;10.00;5.40;;;-0.40;99.90;;;;;;5027812;28;20286;-68
2022/03/09 02:35:08;;;;;;;9.33;5.00;;;-0.40;99.90;;;;;;5017275;28;20219;-69
2022/03/09 02:37:35;;;;;;;7.73;4.70;;;-0.40;99.90;;;;;;5021040;28;20195;-69
2022/03/09 02:40:02;;;;;;;9.00;4.60;;;-0.40;99.90;;;;;;5028955;28;20430;-68
2022/03/09 02:42:29;;;;;;;11.13;5.40;;;-0.40;99.90;;;;;;5026521;28;20210;-70
2022/03/09 02:44:55;;;;;;;9.07;5.37;;;-0.50;99.90;;;;;;5022438;28;20609;-69
2022/03/09 02:47:22;;;;;;;10.33;4.97;;;-0.50;99.90;;;;;;5026351;28;20203;-69
2022/03/09 02:49:48;;;;;;;13.53;5.57;;;-0.50;99.90;;;;;;5027496;28;20192;-71
2022/03/09 02:52:16;;;;;;;9.10;4.77;;;-0.40;99.90;;;;;;5025013;28;20280;-72
2022/03/09 02:54:42;;;;;;;10.90;4.93;;;-0.40;99.90;;;;;;5027271;28;20658;-70
2022/03/09 02:57:09;;;;;;;11.00;5.30;;;-0.40;99.90;;;;;;5027860;28;20446;-69
2022/03/09 02:59:36;;;;;;;10.47;5.47;;;-0.40;99.90;;;;;;5025680;28;20200;-71
2022/03/09 03:02:03;;;;;;;11.37;5.33;;;-0.10;99.90;;;;;;5022364;28;20215;-69
2022/03/09 03:04:29;;;;;;;11.07;5.47;;;0.00;99.90;;;;;;5028129;28;20567;-67
2022/03/09 03:06:56;;;;;;;11.60;5.20;;;-0.10;99.90;;;;;;5027882;28;20294;-66
2022/03/09 03:09:23;;;;;;;9.07;4.73;;;-0.10;99.90;;;;;;5029237;28;20439;-67
2022/03/09 03:11:50;;;;;;;11.13;5.00;;;-0.30;99.90;;;;;;5025502;28;20933;-67
2022/03/09 03:14:16;;;;;;;8.47;4.93;;;-0.50;99.90;;;;;;5028154;28;20449;-66
2022/03/09 03:16:45;;;;;;;10.50;4.60;;;-0.50;99.90;;;;;;5023714;28;20478;-66
2022/03/09 03:19:12;;;;;;;10.20;4.93;;;-0.60;99.90;;;;;;5022897;28;20451;-66
2022/03/09 03:21:39;;;;;;;9.80;5.00;;;-0.70;99.90;;;;;;5026574;28;20457;-66
2022/03/09 03:24:05;;;;;;;9.63;5.13;;;-0.90;99.90;;;;;;5024975;28;20501;-66
2022/03/09 03:26:32;;;;;;;12.03;5.10;;;-0.90;99.90;;;;;;5020786;28;20829;-66
2022/03/09 03:28:59;;;;;;;8.43;4.63;;;-0.90;99.90;;;;;;5023053;28;20452;-67
2022/03/09 03:31:28;;;;;;;10.43;5.20;;;-1.00;99.90;;;;;;5022388;28;20933;-67
2022/03/09 03:33:54;;;;;;;9.50;5.10;;;-1.10;99.90;;;;;;5027732;28;20470;-67
2022/03/09 03:36:21;;;;;;;10.43;5.33;;;-1.10;99.90;;;;;;5023172;28;20470;-67
2022/03/09 03:38:48;;;;;;;11.03;5.13;;;-1.00;99.90;;;;;;5026459;28;20454;-69
2022/03/09 03:41:14;;;;;;;13.90;5.63;;;-0.90;99.90;;;;;;5028008;28;20439;-72
2022/03/09 03:43:41;;;;;;;10.83;5.17;;;-0.80;99.90;;;;;;5027188;28;20853;-68
2022/03/09 03:46:08;;;;;;;13.30;5.13;;;-0.70;99.90;;;;;;5025363;28;20474;-68
2022/03/09 03:48:35;;;;;;;8.13;4.80;;;-0.70;99.90;;;;;;5027634;28;20536;-69
2022/03/09 03:51:02;;;;;;;10.43;5.03;;;-0.70;99.90;;;;;;5026739;28;20441;-68
2022/03/09 03:53:28;;;;;;;10.47;4.87;;;-0.70;99.90;;;;;;5021828;28;20443;-68
2022/03/09 03:55:57;;;;;;;9.93;5.00;;;-0.70;99.90;;;;;;5027238;28;20469;-69
2022/03/09 03:58:25;;;;;;;9.93;4.90;;;-0.70;99.90;;;;;;5027460;28;20435;-68
2022/03/09 04:00:51;;;;;;;16.30;5.50;;;-0.70;99.90;;;;;;5026519;28;20801;-69
2022/03/09 04:03:18;;;;;;;10.57;5.20;;;-0.40;99.90;;;;;;5023253;28;20443;-69
2022/03/09 04:05:45;;;;;;;10.23;4.80;;;-0.30;99.90;;;;;;5029964;28;20490;-68
2022/03/09 04:08:12;;;;;;;10.53;4.93;;;-0.30;99.90;;;;;;5030699;28;20476;-72
2022/03/09 04:10:39;;;;;;;10.50;5.13;;;-0.40;99.90;;;;;;5029911;28;20450;-69
2022/03/09 04:13:05;;;;;;;11.17;5.20;;;-0.30;99.90;;;;;;5031370;28;20434;-68
2022/03/09 04:15:33;;;;;;;7.73;4.40;;;-0.20;99.90;;;;;;5032186;28;20466;-68
2022/03/09 04:18:03;;;;;;;8.63;4.67;;;-0.40;99.90;;;;;;5024764;28;20456;-72
2022/03/09 04:20:30;;;;;;;9.37;5.00;;;-0.70;99.90;;;;;;5030292;28;20466;-68
2022/03/09 04:22:56;;;;;;;11.10;4.93;;;-0.90;99.90;;;;;;5031049;28;20633;-68
2022/03/09 04:25:23;;;;;;;10.53;4.30;;;-1.10;99.90;;;;;;5030842;28;20489;-70
2022/03/09 04:27:50;;;;;;;17.73;5.13;;;-1.10;99.90;;;;;;5029085;28;20446;-67
2022/03/09 04:30:17;;;;;;;12.67;5.23;;;-1.10;99.90;;;;;;5031845;28;20810;-67
2022/03/09 04:32:43;;;;;;;10.20;5.17;;;-1.10;99.90;;;;;;5028823;28;20497;-69
2022/03/09 04:35:12;;;;;;;10.73;4.37;;;-1.20;99.90;;;;;;5026660;28;20490;-68
2022/03/09 04:37:39;;;;;;;8.43;4.40;;;-1.30;99.90;;;;;;5020819;28;20466;-67
2022/03/09 04:40:09;;;;;;;10.57;4.90;;;-1.40;99.90;;;;;;5024383;28;20532;-68
2022/03/09 04:42:36;;;;;;;10.87;5.27;;;-1.40;99.90;;;;;;5030809;28;20454;-68
2022/03/09 04:45:03;;;;;;;9.43;4.83;;;-1.40;99.90;;;;;;5027100;28;20474;-70
2022/03/09 04:47:30;;;;;;;11.80;5.00;;;-1.40;99.90;;;;;;5028482;28;20461;-69
2022/03/09 04:49:56;;;;;;;10.10;5.53;;;-1.30;99.90;;;;;;5029201;28;20442;-67
2022/03/09 04:52:23;;;;;;;11.57;5.10;;;-1.20;99.90;;;;;;5030258;28;20458;-71
2022/03/09 04:54:50;;;;;;;8.20;4.70;;;-1.10;99.90;;;;;;5029739;28;20466;-69
2022/03/09 04:57:17;;;;;;;9.67;4.90;;;-1.00;99.90;;;;;;5030811;28;20521;-68
2022/03/09 04:59:44;;;;;;;8.70;4.70;;;-1.00;99.90;;;;;;5030689;28;20814;-70
2022/03/09 05:02:11;;;;;;;8.87;4.97;;;-1.10;99.90;;;;;;5028156;28;20449;-69
2022/03/09 05:04:38;;;;;;;9.50;4.90;;;-1.20;99.90;;;;;;5027649;28;20569;-68
2022/03/09 05:07:04;;;;;;;11.00;5.37;;;-1.30;99.90;;;;;;5030906;28;20438;-71
2022/03/09 05:09:32;;;;;;;9.57;4.60;;;-1.30;99.90;;;;;;5026475;28;21009;-68
2022/03/09 05:11:59;;;;;;;8.80;4.50;;;-1.10;99.90;;;;;;5021259;28;20459;-69
2022/03/09 05:14:25;;;;;;;9.40;4.67;;;-1.20;99.90;;;;;;5026284;28;20466;-68
2022/03/09 05:16:52;;;;;;;8.97;4.80;;;-1.30;99.90;;;;;;5028465;28;20980;-68
2022/03/09 05:19:19;;;;;;;10.13;5.00;;;-1.40;99.90;;;;;;5027169;28;20458;-71
2022/03/09 05:21:46;;;;;;;11.17;5.37;;;-1.40;99.90;;;;;;5029714;28;20540;-68
2022/03/09 05:24:33;;;;;;;10.03;4.30;;;-1.40;99.90;;;;;;5032406;28;20461;-69
2022/03/09 05:26:59;;;;;;;9.23;5.23;;;-1.40;99.90;;;;;;5021941;28;20469;-70
2022/03/09 05:29:26;;;;;;;9.77;5.00;;;-1.40;99.90;;;;;;5030093;28;20434;-68
2022/03/09 05:31:53;;;;;;;10.50;5.47;;;-1.60;99.90;;;;;;5024108;28;20452;-69
2022/03/09 05:34:19;;;;;;;17.73;5.20;;;-1.80;99.90;;;;;;5020070;28;20482;-68
2022/03/09 05:36:46;;;;;;;15.80;5.00;;;-1.80;99.90;;;;;;5029520;28;20485;-70
2022/03/09 05:39:13;;;;;;;14.47;5.33;;;-1.70;99.90;;;;;;5029540;28;20462;-66
2022/03/09 05:41:40;;;;;;;10.67;5.57;;;-1.70;99.90;;;;;;5022734;28;20987;-68
2022/03/09 05:44:07;;;;;;;11.73;5.13;;;-1.80;99.90;;;;;;5022765;28;20715;-68
2022/03/09 05:46:34;;;;;;;14.33;5.80;;;-1.90;99.90;;;;;;5027759;28;20478;-68
2022/03/09 05:49:02;;;;;;;11.17;5.27;;;-1.70;99.90;;;;;;5029253;28;20500;-70
2022/03/09 05:51:29;;;;;;;10.33;5.07;;;-1.80;99.90;;;;;;5030186;28;20959;-67
2022/03/09 05:53:55;;;;;;;11.73;5.63;;;-1.80;99.90;;;;;;5026133;28;20443;-69
2022/03/09 05:56:23;;;;;;;9.07;5.33;;;-1.70;99.90;;;;;;5029688;28;20492;-68
2022/03/09 05:58:51;;;;;;;15.60;6.60;;;-1.60;99.90;;;;;;5029089;28;20469;-67
2022/03/09 06:01:20;;;;;;;14.33;5.57;;;-1.40;99.90;;;;;;5027621;28;20541;-68
2022/03/09 06:03:47;;;;;;;13.03;4.90;;;-1.50;99.90;;;;;;5029230;28;20808;-67
2022/03/09 06:06:14;;;;;;;11.13;4.80;;;-1.60;99.90;;;;;;5028036;28;20496;-68
2022/03/09 06:08:40;;;;;;;10.77;4.90;;;-1.70;99.90;;;;;;5025374;28;20446;-68
2022/03/09 06:11:08;;;;;;;13.20;5.83;;;-1.80;99.90;;;;;;5022989;28;20438;-67
2022/03/09 06:13:34;;;;;;;11.77;5.73;;;-1.80;99.90;;;;;;5023914;28;20446;-70
2022/03/09 06:16:01;;;;;;;9.13;5.27;;;-1.70;99.90;;;;;;5023972;28;20473;-67
2022/03/09 06:18:29;;;;;;;9.63;5.40;;;-1.60;99.90;;;;;;5026426;28;20485;-69
2022/03/09 06:20:55;;;;;;;11.73;5.40;;;-1.60;99.90;;;;;;5027158;28;20454;-68
2022/03/09 06:23:22;;;;;;;16.80;8.47;;;-1.50;99.90;;;;;;5023043;28;20462;-68
2022/03/09 06:25:49;;;;;;;10.57;5.67;;;-1.20;99.90;;;;;;5027809;28;20858;-68
2022/03/09 06:28:15;;;;;;;14.20;6.37;;;-0.90;99.90;;;;;;5028899;28;20430;-68
2022/03/09 06:30:42;;;;;;;14.93;5.30;;;-1.00;99.90;;;;;;5019385;28;20446;-66
2022/03/09 06:33:10;;;;;;;10.10;5.40;;;-1.10;99.90;;;;;;5019030;28;20435;-68
2022/03/09 06:35:37;;;;;;;13.03;5.67;;;-1.20;99.90;;;;;;5018439;28;20472;-67
2022/03/09 06:38:09;;;;;;;13.73;6.67;;;-1.20;99.90;;;;;;5017168;28;20813;-64
2022/03/09 06:40:36;;;;;;;20.13;6.67;;;-1.20;99.90;;;;;;5016066;28;20458;-64
2022/03/09 06:43:03;;;;;;;13.53;6.03;;;-1.20;99.90;;;;;;5020218;28;20450;-64
2022/03/09 06:45:30;;;;;;;15.33;5.67;;;-1.00;99.90;;;;;;5017347;28;20482;-64
2022/03/09 06:48:00;;;;;;;12.70;6.37;;;-0.90;99.90;;;;;;5017580;28;20461;-65
2022/03/09 06:50:34;;;;;;;15.47;7.13;;;-0.90;99.90;;;;;;5055142;28;20642;-65
2022/03/09 06:53:01;;;;;;;19.13;8.20;;;-0.80;99.90;;;;;;5055253;28;20447;-65
2022/03/09 06:55:28;;;;;;;20.53;8.80;;;-0.80;99.90;;;;;;5043618;28;20479;-65
2022/03/09 06:57:54;;;;;;;19.23;7.97;;;-0.70;99.90;;;;;;5055225;28;20452;-66
2022/03/09 07:00:21;;;;;;;15.50;7.17;;;-0.70;99.90;;;;;;5054838;28;20821;-66
2022/03/09 07:02:48;;;;;;;15.07;6.77;;;-0.60;99.90;;;;;;5055010;28;20468;-65
2022/03/09 07:05:15;;;;;;;15.73;7.07;;;-0.50;99.90;;;;;;5051120;28;20476;-65
2022/03/09 07:07:41;;;;;;;12.43;6.77;;;-0.30;99.90;;;;;;5054366;28;20464;-65
2022/03/09 07:10:12;;;;;;;18.37;7.67;;;-0.10;99.90;;;;;;5056810;28;20539;-65
2022/03/09 07:12:43;;;;;;;23.03;7.67;;;0.10;99.90;;;;;;5055155;28;20452;-65
2022/03/09 07:15:10;;;;;;;14.33;6.77;;;0.10;99.90;;;;;;5048660;28;21036;-65
2022/03/09 07:17:37;;;;;;;19.40;7.30;;;0.10;99.90;;;;;;5054453;28;20228;-65
2022/03/09 07:20:05;;;;;;;15.47;8.20;;;0.20;99.90;;;;;;5053817;28;20194;-65
2022/03/09 07:22:38;;;;;;;15.60;7.03;;;0.40;99.90;;;;;;5052961;28;20452;-65
2022/03/09 07:25:05;;;;;;;16.37;6.97;;;0.50;99.90;;;;;;5053955;28;20468;-65
2022/03/09 07:27:32;;;;;;;15.23;8.00;;;0.60;99.90;;;;;;5054670;28;20787;-65
2022/03/09 07:29:58;;;;;;;14.67;7.20;;;0.70;99.90;;;;;;5052402;28;20237;-65
2022/03/09 07:32:25;;;;;;;17.57;7.60;;;0.80;99.90;;;;;;5051898;28;20198;-65
2022/03/09 07:35:12;;;;;;;16.30;7.37;;;0.90;99.90;;;;;;5048761;28;20219;-65
2022/03/09 07:37:39;;;;;;;13.70;7.33;;;1.00;99.90;;;;;;5054144;28;20656;-65
2022/03/09 07:40:06;;;;;;;16.87;7.70;;;1.00;99.90;;;;;;5053056;28;20214;-65
2022/03/09 07:42:33;;;;;;;18.33;7.97;;;1.20;99.90;;;;;;5051175;28;20199;-65
2022/03/09 07:45:00;;;;;;;15.60;7.80;;;1.30;99.90;;;;;;5053948;28;20233;-65
2022/03/09 07:47:27;;;;;;;18.17;7.90;;;1.50;99.90;;;;;;5053285;28;20308;-65
2022/03/09 07:49:54;;;;;;;16.97;8.53;;;1.50;99.90;;;;;;5048411;28;21087;-65
2022/03/09 07:52:21;;;;;;;14.23;7.43;;;1.70;99.90;;;;;;5049765;28;20600;-65
2022/03/09 07:54:48;;;;;;;19.23;8.37;;;1.80;99.90;;;;;;5050943;28;20200;-65
2022/03/09 07:57:14;;;;;;;16.43;7.90;;;2.00;99.90;;;;;;5049904;28;20200;-65
2022/03/09 07:59:41;;;;;;;21.30;8.73;;;2.30;99.90;;;;;;5052818;28;20199;-65
2022/03/09 08:02:08;;;;;;;21.47;9.30;;;2.40;99.90;;;;;;5038859;28;20203;-65
2022/03/09 08:04:35;;;;;;;19.23;8.50;;;2.50;99.90;;;;;;5037995;28;20227;-65
2022/03/09 08:07:02;;;;;;;17.63;9.40;;;2.60;99.90;;;;;;5036753;28;20769;-65
2022/03/09 08:09:29;;;;;;;22.53;9.97;;;2.70;99.90;;;;;;5037924;28;20227;-65
2022/03/09 08:11:55;;;;;;;17.13;9.30;;;2.90;99.90;;;;;;5039993;28;20220;-65
2022/03/09 08:14:22;;;;;;;20.27;8.30;;;2.90;99.90;;;;;;5033485;28;20209;-65
2022/03/09 08:16:48;;;;;;;18.53;9.03;;;3.00;99.90;;;;;;5040532;28;20224;-65
2022/03/09 08:19:15;;;;;;;21.40;9.93;;;3.20;99.90;;;;;;5039872;28;20198;-65
2022/03/09 08:21:42;;;;;;;17.43;9.03;;;3.40;99.90;;;;;;5038489;28;20213;-65
2022/03/09 08:24:10;;;;;;;17.93;8.30;;;3.50;99.90;;;;;;5036528;28;20301;-65
2022/03/09 08:26:37;;;;;;;14.67;8.53;;;3.50;99.90;;;;;;5035230;28;20221;-67
2022/03/09 08:29:04;;;;;;;16.87;9.27;;;3.60;99.90;;;;;;5039415;28;20226;-67
2022/03/09 08:31:30;;;;;;;15.87;8.67;;;3.70;99.90;;;;;;5038724;28;20199;-71
2022/03/09 08:33:58;;;;;;;19.70;8.70;;;3.90;99.90;;;;;;5037418;28;21097;-69
2022/03/09 08:36:25;;;;;;;16.87;8.87;;;4.00;99.90;;;;;;5041333;28;20233;-68
2022/03/09 08:38:51;;;;;;;18.27;9.20;;;4.10;99.90;;;;;;5030694;28;20194;-69
2022/03/09 08:41:18;;;;;;;16.43;8.17;;;4.20;99.90;;;;;;5037301;28;20194;-69
2022/03/09 08:43:45;;;;;;;14.23;8.13;;;4.50;99.90;;;;;;5039019;28;20207;-71
2022/03/09 08:46:12;;;;;;;19.77;8.83;;;4.50;99.90;;;;;;5039090;28;20223;-70
2022/03/09 08:48:40;;;;;;;16.13;7.30;;;4.80;99.90;;;;;;5036297;28;20199;-69
2022/03/09 08:51:07;;;;;;;13.03;6.80;;;4.90;99.90;;;;;;5038400;28;20301;-67
2022/03/09 08:53:34;;;;;;;16.20;7.00;;;5.20;99.90;;;;;;5038099;28;20201;-67
2022/03/09 08:56:01;;;;;;;21.00;6.80;;;5.50;99.90;;;;;;5038114;28;20597;-67
2022/03/09 08:58:28;;;;;;;16.63;6.67;;;5.70;99.90;;;;;;5035046;28;20293;-67
2022/03/09 09:00:55;;;;;;;15.10;6.60;;;5.90;99.90;;;;;;5034603;28;20200;-67
2022/03/09 09:03:22;;;;;;;9.03;5.80;;;6.00;99.90;;;;;;5039134;28;20209;-67
2022/03/09 09:05:49;;;;;;;11.80;5.93;;;6.10;99.90;;;;;;5036401;28;20321;-67
2022/03/09 09:08:16;;;;;;;14.10;6.73;;;6.10;99.90;;;;;;5036366;28;20286;-67
2022/03/09 09:10:43;;;;;;;18.00;6.53;;;6.20;99.90;;;;;;5038877;28;20237;-67
2022/03/09 09:13:10;;;;;;;11.67;6.67;;;6.40;99.90;;;;;;5038220;28;20206;-67
2022/03/09 09:15:38;;;;;;;11.43;6.13;;;6.50;99.90;;;;;;5036065;28;20232;-67
2022/03/09 09:18:06;;;;;;;13.20;6.73;;;6.70;99.90;;;;;;5038608;28;20203;-72
2022/03/09 09:20:47;;;;;;;15.93;7.73;;;6.80;99.90;;;;;;5038259;28;20594;-70
2022/03/09 09:23:13;;;;;;;19.83;9.17;;;6.90;99.90;;;;;;5039168;28;20208;-72
2022/03/09 09:25:43;;;;;;;14.97;6.93;;;7.10;99.90;;;;;;5040763;28;20314;-69
2022/03/09 09:28:09;;;;;;;15.43;6.53;;;7.40;99.90;;;;;;5039874;28;21068;-72
2022/03/09 09:30:36;;;;;;;12.30;7.70;;;7.50;99.90;;;;;;5038123;28;20222;-71
2022/03/09 09:33:03;;;;;;;14.93;7.00;;;7.50;99.90;;;;;;5038618;28;20658;-70
2022/03/09 09:35:30;;;;;;;15.17;7.40;;;7.50;99.90;;;;;;5037901;28;20756;-72
2022/03/09 09:38:17;;;;;;;17.17;7.87;;;7.70;99.90;;;;;;5037462;28;20208;-71
2022/03/09 09:40:47;;;;;;;13.40;7.13;;;7.80;99.90;;;;;;5034419;28;21100;-68
2022/03/09 09:43:15;;;;;;;17.10;7.13;;;8.10;99.90;;;;;;5038037;28;20659;-70
2022/03/09 09:45:43;;;;;;;11.57;6.30;;;8.20;99.90;;;;;;5033967;28;20586;-67
2022/03/09 09:48:10;;;;;;;13.63;5.87;;;8.30;99.90;;;;;;5037408;28;20224;-68
2022/03/09 09:50:39;;;;;;;11.67;6.13;;;8.40;99.90;;;;;;5035078;28;20695;-72
2022/03/09 09:53:07;;;;;;;9.93;6.00;;;8.50;99.90;;;;;;5036967;28;20345;-68
2022/03/09 09:55:34;;;;;;;9.27;5.73;;;8.60;99.90;;;;;;5037461;28;20701;-69
2022/03/09 09:58:01;;;;;;;12.80;6.47;;;8.70;99.90;;;;;;5036566;28;20215;-68
2022/03/09 10:00:28;;;;;;;10.53;6.73;;;8.80;99.90;;;;;;5036186;28;20771;-70
2022/03/09 10:03:01;;;;;;;11.97;6.63;;;8.90;99.90;;;;;;5038294;28;20598;-69
2022/03/09 10:05:28;;;;;;;10.07;6.00;;;8.90;99.90;;;;;;5038035;28;21053;-68
2022/03/09 10:08:03;;;;;;;12.53;6.57;;;8.90;99.90;;;;;;5036918;28;20202;-70
2022/03/09 10:10:57;;;;;;;17.93;6.77;;;9.20;99.90;;;;;;5036531;28;20228;-66
2022/03/09 10:13:35;;;;;;;12.50;6.53;;;9.30;99.90;;;;;;5034678;28;20211;-70
2022/03/09 10:16:20;;;;;;;12.97;6.47;;;9.40;99.90;;;;;;5034397;28;20266;-67
2022/03/09 10:18:48;;;;;;;10.03;5.90;;;9.20;99.90;;;;;;5037847;28;20251;-68
2022/03/09 10:21:17;;;;;;;10.97;6.93;;;9.30;99.90;;;;;;5039716;28;20206;-66
2022/03/09 10:24:05;;;;;;;10.77;6.10;;;9.50;99.90;;;;;;5035696;28;20671;-68
2022/03/09 10:26:42;;;;;;;17.33;6.63;;;9.50;99.90;;;;;;5038110;28;20234;-68
2022/03/09 10:29:11;;;;;;;14.00;6.93;;;9.70;99.90;;;;;;5039730;28;20614;-67
2022/03/09 10:31:48;;;;;;;12.77;7.40;;;9.80;99.90;;;;;;5038297;28;21430;-68
2022/03/09 10:34:23;;;;;;;14.47;6.67;;;9.60;99.90;;;;;;5038641;28;20213;-70
2022/03/09 10:37:05;;;;;;;10.93;6.27;;;9.60;99.90;;;;;;5038799;28;20332;-69
2022/03/09 10:39:36;;;;;;;11.57;6.60;;;9.60;99.90;;;;;;5038116;28;20207;-67
2022/03/09 10:42:22;;;;;;;11.53;6.93;;;9.50;99.90;;;;;;5037187;28;20201;-68
2022/03/09 10:44:50;;;;;;;9.80;5.73;;;9.30;99.90;;;;;;5037270;28;20283;-64
2022/03/09 10:47:38;;;;;;;13.27;6.13;;;9.50;99.90;;;;;;5038998;28;20211;-65
2022/03/09 10:50:25;;;;;;;15.27;5.93;;;9.60;99.90;;;;;;5040109;28;20230;-65
2022/03/09 10:52:57;;;;;;;10.70;6.63;;;9.70;99.90;;;;;;5038490;28;20197;-65
2022/03/09 10:55:29;;;;;;;13.33;6.67;;;9.80;99.90;;;;;;5034264;28;20579;-65
2022/03/09 10:58:18;;;;;;;12.40;6.67;;;9.90;99.90;;;;;;5036962;28;20203;-65
2022/03/09 11:00:52;;;;;;;10.30;6.70;;;10.10;99.90;;;;;;5033831;28;20194;-65
2022/03/09 11:03:24;;;;;;;11.23;6.70;;;10.20;99.90;;;;;;5034546;28;20198;-65
2022/03/09 11:05:54;;;;;;;11.63;6.93;;;10.40;99.90;;;;;;5035686;28;20210;-65
2022/03/09 11:08:30;;;;;;;15.10;6.97;;;10.60;99.90;;;;;;5036649;28;20203;-65
2022/03/09 11:11:01;;;;;;;17.50;6.37;;;10.70;99.90;;;;;;5037916;28;20606;-66
2022/03/09 11:13:33;;;;;;;12.53;7.27;;;10.80;99.90;;;;;;5033277;28;20199;-66
2022/03/09 11:16:01;;;;;;;10.73;6.67;;;11.00;99.90;;;;;;5030755;28;20227;-65
2022/03/09 11:18:30;;;;;;;15.13;7.10;;;10.90;99.90;;;;;;5037144;28;20201;-66
2022/03/09 11:21:00;;;;;;;11.60;6.93;;;10.90;99.90;;;;;;5035547;28;20207;-65
2022/03/09 11:23:31;;;;;;;12.27;6.43;;;11.10;99.80;;;;;;5029289;28;20300;-66
2022/03/09 11:26:09;;;;;;;12.63;7.13;;;11.10;99.80;;;;;;5035417;28;20227;-66
2022/03/09 11:28:38;;;;;;;11.13;6.53;;;11.30;99.30;;;;;;5037170;28;20614;-65
2022/03/09 11:31:11;;;;;;;15.33;6.87;;;11.40;99.50;;;;;;5037027;28;20222;-66
2022/03/09 11:33:46;;;;;;;11.17;6.73;;;11.50;99.40;;;;;;5030200;28;20291;-66
2022/03/09 11:36:27;;;;;;;13.37;6.43;;;11.60;99.10;;;;;;5038436;28;20224;-65
2022/03/09 11:38:55;;;;;;;13.07;6.70;;;11.70;99.10;;;;;;5042354;28;20209;-66
2022/03/09 11:41:28;;;;;;;9.80;6.57;;;11.70;98.40;;;;;;5040587;28;20212;-66
2022/03/09 11:44:18;;;;;;;11.50;6.57;;;11.80;98.80;;;;;;5036803;28;20580;-66
2022/03/09 11:47:01;;;;;;;13.63;7.00;;;11.80;98.70;;;;;;5042980;28;20226;-66
2022/03/09 11:49:32;;;;;;;10.97;6.70;;;11.90;98.30;;;;;;5040844;28;20217;-66
2022/03/09 11:52:10;;;;;;;13.30;7.67;;;12.00;98.60;;;;;;5040617;28;20202;-65
2022/03/09 11:54:52;;;;;;;10.83;7.33;;;12.00;98.80;;;;;;5042096;28;20866;-66
2022/03/09 11:57:23;;;;;;;11.37;6.90;;;12.10;99.10;;;;;;5041746;28;20202;-66
2022/03/09 12:00:13;;;;;;;11.77;7.20;;;12.20;98.60;;;;;;5039797;28;20291;-66
2022/03/09 12:02:48;;;;;;;14.07;7.27;;;12.20;97.40;;;;;;5039488;28;20215;-66
2022/03/09 12:05:35;;;;;;;11.00;6.90;;;12.10;98.10;;;;;;5041785;28;20231;-68
2022/03/09 12:08:07;;;;;;;14.30;6.80;;;12.20;97.50;;;;;;5038097;28;20698;-71
2022/03/09 12:10:47;;;;;;;13.23;8.20;;;12.20;97.20;;;;;;5041241;28;20685;-67
2022/03/09 12:13:31;;;;;;;11.23;7.70;;;12.20;97.60;;;;;;5040265;28;20198;-68
2022/03/09 12:16:05;;;;;;;11.50;6.83;;;12.30;98.00;;;;;;5038042;28;20219;-69
2022/03/09 12:18:35;;;;;;;12.63;7.67;;;12.30;97.20;;;;;;5040776;28;20195;-67
2022/03/09 12:21:03;;;;;;;15.03;9.17;;;12.40;96.80;;;;;;5041557;28;20313;-67
2022/03/09 12:23:30;;;;;;;11.87;8.27;;;12.40;97.30;;;;;;5039984;28;20249;-66
2022/03/09 12:25:58;;;;;;;16.47;7.17;;;12.40;97.30;;;;;;5038395;28;20243;-67
2022/03/09 12:28:28;;;;;;;11.87;7.00;;;12.50;96.80;;;;;;5041094;28;20206;-71
2022/03/09 12:31:14;;;;;;;14.67;7.20;;;12.60;96.70;;;;;;5039464;28;20587;-72
2022/03/09 12:33:43;;;;;;;14.70;7.57;;;12.80;96.20;;;;;;5035899;28;20740;-71
2022/03/09 12:36:23;;;;;;;13.07;7.30;;;12.80;96.20;;;;;;5038725;28;20218;-73
2022/03/09 12:39:03;;;;;;;17.70;7.33;;;12.90;96.00;;;;;;5035000;28;20191;-72
2022/03/09 12:41:39;;;;;;;13.10;7.47;;;12.90;97.00;;;;;;5039379;28;20687;-73
2022/03/09 12:44:14;;;;;;;16.07;7.33;;;13.00;96.30;;;;;;5036380;28;20199;-75
2022/03/09 12:46:43;;;;;;;11.77;6.83;;;12.80;95.90;;;;;;5036216;28;20218;-73
2022/03/09 12:49:29;;;;;;;14.03;7.67;;;12.70;96.20;;;;;;5038338;28;20226;-73
2022/03/09 12:52:00;;;;;;;12.40;7.40;;;12.60;96.70;;;;;;5037796;28;20782;-72
2022/03/09 12:54:34;;;;;;;13.77;7.70;;;12.70;96.80;;;;;;5041442;28;20289;-76